Terminal Aerodrome Forecast
Issued by NWS Caribou, ME

Home | Current Version | Previous Version | Text Only | Print | Product List | Glossary On
Versions: 1 2 3 4 5 6 7 8 9 10 11 12 13 14 15 16 17
000
FTUS41 KCAR 181120
TAFCAR
TAF
KCAR 181120Z 1812/1912 00000KT P6SM BKN250
     FM181600 VRB03KT P6SM VCSH BKN070
     FM190000 16005KT 6SM -SHRA OVC050
     FM190400 16007KT 4SM -SHRA BR OVC025
     FM190800 15008KT 4SM -SHRA BR OVC008=

USA.gov is the U.S. government's official web portal to all federal, state and local government web resources and services.